Terminal Aerodrome Forecast
Issued by NWS

Home | Current Version | Previous Version | Text Only | Print | Product List | Glossary On
Versions: 1 2 3 4 5 6 7 8 9 10 11 12 13 14 15 16 17 18 19 20 21 22 23 24 25 26 27 28
000
FTUS46 KPDT 291727
TAFYKM
TAF
KYKM 291727Z 2918/3018 VRB03KT P6SM SCT015 OVC060
     FM292100 19012G22KT P6SM SCT060 BKN080
     FM300400 27006KT P6SM SCT060
     FM301500 32010KT P6SM FEW070=

USA.gov is the U.S. government's official web portal to all federal, state and local government web resources and services.